sensor_id;sensor_type;location;lat;lon;timestamp;P1;durP1;ratioP1;P2;durP2;ratioP2
15573;SDS011;7888;46.748;8.102;2023-05-07T00:02:25;0.67;;;0.67;;
15573;SDS011;7888;46.748;8.102;2023-05-07T00:04:50;2.00;;;0.67;;
15573;SDS011;7888;46.748;8.102;2023-05-07T00:07:17;2.87;;;1.20;;
15573;SDS011;7888;46.748;8.102;2023-05-07T00:09:43;1.00;;;0.90;;
15573;SDS011;7888;46.748;8.102;2023-05-07T00:12:09;1.60;;;1.07;;
15573;SDS011;7888;46.748;8.102;2023-05-07T00:14:35;2.13;;;0.90;;
15573;SDS011;7888;46.748;8.102;2023-05-07T00:17:01;0.93;;;0.80;;
15573;SDS011;7888;46.748;8.102;2023-05-07T00:19:27;0.80;;;0.80;;
15573;SDS011;7888;46.748;8.102;2023-05-07T00:21:53;0.70;;;0.70;;
15573;SDS011;7888;46.748;8.102;2023-05-07T00:24:19;1.07;;;0.80;;
15573;SDS011;7888;46.748;8.102;2023-05-07T00:26:45;1.30;;;0.90;;
15573;SDS011;7888;46.748;8.102;2023-05-07T00:29:10;1.47;;;0.90;;
15573;SDS011;7888;46.748;8.102;2023-05-07T00:31:36;1.57;;;0.80;;
15573;SDS011;7888;46.748;8.102;2023-05-07T00:34:02;1.30;;;0.80;;
15573;SDS011;7888;46.748;8.102;2023-05-07T00:36:28;0.77;;;0.77;;
15573;SDS011;7888;46.748;8.102;2023-05-07T00:38:54;1.20;;;0.80;;
15573;SDS011;7888;46.748;8.102;2023-05-07T00:41:22;2.77;;;0.93;;
15573;SDS011;7888;46.748;8.102;2023-05-07T00:43:47;2.10;;;0.83;;
15573;SDS011;7888;46.748;8.102;2023-05-07T00:46:13;1.80;;;0.90;;
15573;SDS011;7888;46.748;8.102;2023-05-07T00:48:40;1.47;;;0.70;;
15573;SDS011;7888;46.748;8.102;2023-05-07T00:51:06;1.10;;;0.70;;
15573;SDS011;7888;46.748;8.102;2023-05-07T00:53:32;0.60;;;0.60;;
15573;SDS011;7888;46.748;8.102;2023-05-07T00:55:58;0.70;;;0.70;;
15573;SDS011;7888;46.748;8.102;2023-05-07T00:58:25;0.70;;;0.70;;
15573;SDS011;7888;46.748;8.102;2023-05-07T01:00:52;1.33;;;0.73;;
15573;SDS011;7888;46.748;8.102;2023-05-07T01:03:17;1.17;;;0.80;;
15573;SDS011;7888;46.748;8.102;2023-05-07T01:05:43;1.60;;;0.80;;
15573;SDS011;7888;46.748;8.102;2023-05-07T01:08:11;1.63;;;0.60;;
15573;SDS011;7888;46.748;8.102;2023-05-07T01:10:39;0.97;;;0.97;;
15573;SDS011;7888;46.748;8.102;2023-05-07T01:13:07;0.70;;;0.60;;
15573;SDS011;7888;46.748;8.102;2023-05-07T01:15:38;0.87;;;0.87;;
15573;SDS011;7888;46.748;8.102;2023-05-07T01:18:06;2.20;;;1.20;;
15573;SDS011;7888;46.748;8.102;2023-05-07T01:20:32;1.00;;;0.90;;
15573;SDS011;7888;46.748;8.102;2023-05-07T01:22:58;4.70;;;0.90;;
15573;SDS011;7888;46.748;8.102;2023-05-07T01:25:26;1.47;;;0.70;;
15573;SDS011;7888;46.748;8.102;2023-05-07T01:27:53;1.23;;;0.70;;
15573;SDS011;7888;46.748;8.102;2023-05-07T01:30:19;1.03;;;0.77;;
15573;SDS011;7888;46.748;8.102;2023-05-07T01:35:30;2.20;;;0.80;;
15573;SDS011;7888;46.748;8.102;2023-05-07T01:38:05;1.27;;;0.83;;
15573;SDS011;7888;46.748;8.102;2023-05-07T01:40:33;1.77;;;0.73;;
15573;SDS011;7888;46.748;8.102;2023-05-07T01:43:00;0.80;;;0.80;;
15573;SDS011;7888;46.748;8.102;2023-05-07T01:45:28;1.80;;;0.67;;
15573;SDS011;7888;46.748;8.102;2023-05-07T01:47:55;4.00;;;0.90;;
15573;SDS011;7888;46.748;8.102;2023-05-07T01:50:23;2.83;;;0.90;;
15573;SDS011;7888;46.748;8.102;2023-05-07T01:52:51;1.33;;;0.90;;
15573;SDS011;7888;46.748;8.102;2023-05-07T01:55:17;2.60;;;0.87;;
15573;SDS011;7888;46.748;8.102;2023-05-07T01:57:44;1.27;;;0.87;;
15573;SDS011;7888;46.748;8.102;2023-05-07T02:00:10;2.30;;;1.13;;
15573;SDS011;7888;46.748;8.102;2023-05-07T02:02:36;1.10;;;0.70;;
15573;SDS011;7888;46.748;8.102;2023-05-07T02:05:03;1.50;;;0.97;;
15573;SDS011;7888;46.748;8.102;2023-05-07T02:07:29;1.07;;;0.70;;
15573;SDS011;7888;46.748;8.102;2023-05-07T02:09:55;2.30;;;0.70;;
15573;SDS011;7888;46.748;8.102;2023-05-07T02:12:21;3.30;;;0.70;;
15573;SDS011;7888;46.748;8.102;2023-05-07T02:14:48;3.60;;;0.70;;
15573;SDS011;7888;46.748;8.102;2023-05-07T02:17:14;2.97;;;0.90;;
15573;SDS011;7888;46.748;8.102;2023-05-07T02:19:40;1.57;;;0.90;;
15573;SDS011;7888;46.748;8.102;2023-05-07T02:22:06;4.17;;;0.93;;
15573;SDS011;7888;46.748;8.102;2023-05-07T02:24:34;1.20;;;0.70;;
15573;SDS011;7888;46.748;8.102;2023-05-07T02:27:00;0.93;;;0.80;;
15573;SDS011;7888;46.748;8.102;2023-05-07T02:29:27;1.60;;;0.87;;
15573;SDS011;7888;46.748;8.102;2023-05-07T02:31:53;0.90;;;0.80;;
15573;SDS011;7888;46.748;8.102;2023-05-07T02:34:18;2.43;;;0.73;;
15573;SDS011;7888;46.748;8.102;2023-05-07T02:36:45;0.67;;;0.67;;
15573;SDS011;7888;46.748;8.102;2023-05-07T02:39:11;4.40;;;0.70;;
15573;SDS011;7888;46.748;8.102;2023-05-07T02:41:38;0.70;;;0.63;;
15573;SDS011;7888;46.748;8.102;2023-05-07T02:44:04;2.40;;;0.90;;
15573;SDS011;7888;46.748;8.102;2023-05-07T02:46:30;1.37;;;0.60;;
15573;SDS011;7888;46.748;8.102;2023-05-07T02:48:56;1.13;;;0.70;;
15573;SDS011;7888;46.748;8.102;2023-05-07T02:51:22;2.57;;;0.70;;
15573;SDS011;7888;46.748;8.102;2023-05-07T02:53:48;1.73;;;0.50;;
15573;SDS011;7888;46.748;8.102;2023-05-07T02:56:14;4.47;;;0.80;;
15573;SDS011;7888;46.748;8.102;2023-05-07T02:58:40;0.73;;;0.70;;
15573;SDS011;7888;46.748;8.102;2023-05-07T03:01:07;0.60;;;0.60;;
15573;SDS011;7888;46.748;8.102;2023-05-07T03:03:34;1.43;;;1.03;;
15573;SDS011;7888;46.748;8.102;2023-05-07T03:06:00;2.27;;;0.80;;
15573;SDS011;7888;46.748;8.102;2023-05-07T03:08:26;3.10;;;1.00;;
15573;SDS011;7888;46.748;8.102;2023-05-07T03:10:52;1.20;;;1.10;;
15573;SDS011;7888;46.748;8.102;2023-05-07T03:13:18;2.03;;;1.13;;
15573;SDS011;7888;46.748;8.102;2023-05-07T03:15:44;0.97;;;0.90;;
15573;SDS011;7888;46.748;8.102;2023-05-07T03:18:11;1.90;;;1.00;;
15573;SDS011;7888;46.748;8.102;2023-05-07T03:20:37;0.80;;;0.80;;
15573;SDS011;7888;46.748;8.102;2023-05-07T03:23:03;2.27;;;0.90;;
15573;SDS011;7888;46.748;8.102;2023-05-07T03:25:28;3.03;;;0.90;;
15573;SDS011;7888;46.748;8.102;2023-05-07T03:27:57;3.37;;;0.90;;
15573;SDS011;7888;46.748;8.102;2023-05-07T03:30:23;2.13;;;0.70;;
15573;SDS011;7888;46.748;8.102;2023-05-07T03:32:49;5.33;;;1.17;;
15573;SDS011;7888;46.748;8.102;2023-05-07T03:35:15;1.00;;;0.87;;
15573;SDS011;7888;46.748;8.102;2023-05-07T03:37:41;2.53;;;0.70;;
15573;SDS011;7888;46.748;8.102;2023-05-07T03:40:07;0.93;;;0.87;;
15573;SDS011;7888;46.748;8.102;2023-05-07T03:42:35;2.13;;;1.03;;
15573;SDS011;7888;46.748;8.102;2023-05-07T03:45:01;0.80;;;0.60;;
15573;SDS011;7888;46.748;8.102;2023-05-07T03:47:27;1.30;;;0.90;;
15573;SDS011;7888;46.748;8.102;2023-05-07T03:49:52;2.00;;;0.90;;
15573;SDS011;7888;46.748;8.102;2023-05-07T03:52:19;2.17;;;0.87;;
15573;SDS011;7888;46.748;8.102;2023-05-07T03:54:49;1.00;;;0.80;;
15573;SDS011;7888;46.748;8.102;2023-05-07T03:57:15;3.43;;;0.80;;
15573;SDS011;7888;46.748;8.102;2023-05-07T03:59:41;3.30;;;0.90;;
15573;SDS011;7888;46.748;8.102;2023-05-07T04:02:06;1.57;;;0.90;;
15573;SDS011;7888;46.748;8.102;2023-05-07T04:04:32;2.30;;;1.00;;
15573;SDS011;7888;46.748;8.102;2023-05-07T04:06:58;2.40;;;1.03;;
15573;SDS011;7888;46.748;8.102;2023-05-07T04:09:25;1.60;;;1.10;;
15573;SDS011;7888;46.748;8.102;2023-05-07T04:11:51;1.57;;;1.20;;
15573;SDS011;7888;46.748;8.102;2023-05-07T04:14:16;4.13;;;1.00;;
15573;SDS011;7888;46.748;8.102;2023-05-07T04:16:42;1.40;;;0.87;;
15573;SDS011;7888;46.748;8.102;2023-05-07T04:19:08;2.17;;;0.80;;
15573;SDS011;7888;46.748;8.102;2023-05-07T04:21:34;1.03;;;0.97;;
15573;SDS011;7888;46.748;8.102;2023-05-07T04:23:59;1.63;;;0.80;;
15573;SDS011;7888;46.748;8.102;2023-05-07T04:26:25;3.70;;;0.90;;
15573;SDS011;7888;46.748;8.102;2023-05-07T04:28:51;3.80;;;1.07;;
15573;SDS011;7888;46.748;8.102;2023-05-07T04:31:17;2.00;;;0.70;;
15573;SDS011;7888;46.748;8.102;2023-05-07T04:33:42;2.10;;;0.90;;
15573;SDS011;7888;46.748;8.102;2023-05-07T04:36:08;2.07;;;0.80;;
15573;SDS011;7888;46.748;8.102;2023-05-07T04:38:34;2.03;;;1.00;;
15573;SDS011;7888;46.748;8.102;2023-05-07T04:41:03;2.73;;;1.13;;
15573;SDS011;7888;46.748;8.102;2023-05-07T04:43:30;1.50;;;0.80;;
15573;SDS011;7888;46.748;8.102;2023-05-07T04:45:56;1.43;;;0.87;;
15573;SDS011;7888;46.748;8.102;2023-05-07T04:48:22;5.43;;;1.30;;
15573;SDS011;7888;46.748;8.102;2023-05-07T04:50:48;1.47;;;0.70;;
15573;SDS011;7888;46.748;8.102;2023-05-07T04:53:15;2.47;;;0.77;;
15573;SDS011;7888;46.748;8.102;2023-05-07T04:55:41;2.73;;;1.13;;
15573;SDS011;7888;46.748;8.102;2023-05-07T04:58:08;2.77;;;1.80;;
15573;SDS011;7888;46.748;8.102;2023-05-07T05:00:34;3.53;;;1.37;;
15573;SDS011;7888;46.748;8.102;2023-05-07T05:03:00;2.13;;;1.10;;
15573;SDS011;7888;46.748;8.102;2023-05-07T05:05:26;3.23;;;1.20;;
15573;SDS011;7888;46.748;8.102;2023-05-07T05:07:52;1.10;;;1.00;;
15573;SDS011;7888;46.748;8.102;2023-05-07T05:10:18;1.23;;;0.90;;
15573;SDS011;7888;46.748;8.102;2023-05-07T05:12:43;2.70;;;1.20;;
15573;SDS011;7888;46.748;8.102;2023-05-07T05:15:11;1.20;;;0.80;;
15573;SDS011;7888;46.748;8.102;2023-05-07T05:17:37;3.20;;;0.97;;
15573;SDS011;7888;46.748;8.102;2023-05-07T05:20:04;2.37;;;0.97;;
15573;SDS011;7888;46.748;8.102;2023-05-07T05:22:31;1.33;;;0.93;;
15573;SDS011;7888;46.748;8.102;2023-05-07T05:24:57;1.33;;;0.90;;
15573;SDS011;7888;46.748;8.102;2023-05-07T05:27:23;1.57;;;1.47;;
15573;SDS011;7888;46.748;8.102;2023-05-07T05:29:49;2.13;;;1.70;;
15573;SDS011;7888;46.748;8.102;2023-05-07T05:32:15;3.03;;;1.40;;
15573;SDS011;7888;46.748;8.102;2023-05-07T05:34:41;1.60;;;1.13;;
15573;SDS011;7888;46.748;8.102;2023-05-07T05:37:06;4.57;;;1.20;;
15573;SDS011;7888;46.748;8.102;2023-05-07T05:39:32;2.10;;;0.97;;
15573;SDS011;7888;46.748;8.102;2023-05-07T05:41:58;2.27;;;1.47;;
15573;SDS011;7888;46.748;8.102;2023-05-07T05:44:24;2.63;;;1.30;;
15573;SDS011;7888;46.748;8.102;2023-05-07T05:46:50;2.90;;;1.63;;
15573;SDS011;7888;46.748;8.102;2023-05-07T05:49:16;3.60;;;2.33;;
15573;SDS011;7888;46.748;8.102;2023-05-07T05:51:42;3.13;;;2.30;;
15573;SDS011;7888;46.748;8.102;2023-05-07T05:54:08;3.50;;;2.10;;
15573;SDS011;7888;46.748;8.102;2023-05-07T05:56:34;2.43;;;2.07;;
15573;SDS011;7888;46.748;8.102;2023-05-07T05:59:02;3.03;;;2.00;;
15573;SDS011;7888;46.748;8.102;2023-05-07T06:01:28;8.40;;;4.87;;
15573;SDS011;7888;46.748;8.102;2023-05-07T06:03:53;10.83;;;6.90;;
15573;SDS011;7888;46.748;8.102;2023-05-07T06:06:19;10.73;;;5.53;;
15573;SDS011;7888;46.748;8.102;2023-05-07T06:08:45;7.50;;;4.13;;
15573;SDS011;7888;46.748;8.102;2023-05-07T06:11:11;6.80;;;3.80;;
15573;SDS011;7888;46.748;8.102;2023-05-07T06:13:37;5.07;;;3.17;;
15573;SDS011;7888;46.748;8.102;2023-05-07T06:16:02;4.80;;;3.07;;
15573;SDS011;7888;46.748;8.102;2023-05-07T06:18:28;4.77;;;2.07;;
15573;SDS011;7888;46.748;8.102;2023-05-07T06:20:54;1.83;;;1.30;;
15573;SDS011;7888;46.748;8.102;2023-05-07T06:23:20;1.50;;;1.40;;
15573;SDS011;7888;46.748;8.102;2023-05-07T06:25:49;1.93;;;1.27;;
15573;SDS011;7888;46.748;8.102;2023-05-07T06:28:16;2.13;;;1.70;;
15573;SDS011;7888;46.748;8.102;2023-05-07T06:30:42;4.30;;;1.70;;
15573;SDS011;7888;46.748;8.102;2023-05-07T06:33:08;3.70;;;1.77;;
15573;SDS011;7888;46.748;8.102;2023-05-07T06:35:33;2.90;;;1.80;;
15573;SDS011;7888;46.748;8.102;2023-05-07T06:37:59;2.23;;;1.70;;
15573;SDS011;7888;46.748;8.102;2023-05-07T06:40:26;3.97;;;2.00;;
15573;SDS011;7888;46.748;8.102;2023-05-07T06:42:52;1.93;;;1.70;;
15573;SDS011;7888;46.748;8.102;2023-05-07T06:45:18;3.83;;;1.70;;
15573;SDS011;7888;46.748;8.102;2023-05-07T06:47:45;2.73;;;1.37;;
15573;SDS011;7888;46.748;8.102;2023-05-07T06:50:11;3.00;;;1.20;;
15573;SDS011;7888;46.748;8.102;2023-05-07T06:52:37;2.53;;;1.20;;
15573;SDS011;7888;46.748;8.102;2023-05-07T06:55:02;2.63;;;1.20;;
15573;SDS011;7888;46.748;8.102;2023-05-07T06:57:29;2.20;;;1.13;;
15573;SDS011;7888;46.748;8.102;2023-05-07T06:59:55;2.97;;;1.20;;
15573;SDS011;7888;46.748;8.102;2023-05-07T07:02:20;3.47;;;1.30;;
15573;SDS011;7888;46.748;8.102;2023-05-07T07:04:46;1.67;;;1.30;;
15573;SDS011;7888;46.748;8.102;2023-05-07T07:07:12;2.07;;;1.33;;
15573;SDS011;7888;46.748;8.102;2023-05-07T07:09:38;2.47;;;1.20;;
15573;SDS011;7888;46.748;8.102;2023-05-07T07:12:03;2.07;;;1.50;;
15573;SDS011;7888;46.748;8.102;2023-05-07T07:14:29;1.93;;;1.10;;
15573;SDS011;7888;46.748;8.102;2023-05-07T07:16:55;1.02;;;0.93;;
15573;SDS011;7888;46.748;8.102;2023-05-07T07:19:21;2.20;;;1.40;;
15573;SDS011;7888;46.748;8.102;2023-05-07T07:21:47;1.63;;;1.10;;
15573;SDS011;7888;46.748;8.102;2023-05-07T07:24:13;3.07;;;1.30;;
15573;SDS011;7888;46.748;8.102;2023-05-07T07:26:46;1.27;;;1.17;;
15573;SDS011;7888;46.748;8.102;2023-05-07T07:29:12;3.20;;;1.27;;
15573;SDS011;7888;46.748;8.102;2023-05-07T07:31:38;2.40;;;1.57;;
15573;SDS011;7888;46.748;8.102;2023-05-07T07:34:04;1.80;;;1.50;;
15573;SDS011;7888;46.748;8.102;2023-05-07T07:36:29;3.63;;;1.40;;
15573;SDS011;7888;46.748;8.102;2023-05-07T07:38:55;2.60;;;1.40;;
15573;SDS011;7888;46.748;8.102;2023-05-07T07:41:21;2.73;;;1.57;;
15573;SDS011;7888;46.748;8.102;2023-05-07T07:43:46;3.63;;;1.50;;
15573;SDS011;7888;46.748;8.102;2023-05-07T07:46:12;2.37;;;1.53;;
15573;SDS011;7888;46.748;8.102;2023-05-07T07:48:38;3.63;;;1.55;;
15573;SDS011;7888;46.748;8.102;2023-05-07T07:51:04;3.03;;;1.30;;
15573;SDS011;7888;46.748;8.102;2023-05-07T07:53:30;1.63;;;1.35;;
15573;SDS011;7888;46.748;8.102;2023-05-07T07:55:56;1.38;;;1.25;;
15573;SDS011;7888;46.748;8.102;2023-05-07T07:58:21;3.00;;;1.30;;
15573;SDS011;7888;46.748;8.102;2023-05-07T08:00:48;1.52;;;1.40;;
15573;SDS011;7888;46.748;8.102;2023-05-07T08:03:14;2.05;;;1.10;;
15573;SDS011;7888;46.748;8.102;2023-05-07T08:05:41;2.10;;;1.20;;
15573;SDS011;7888;46.748;8.102;2023-05-07T08:08:07;2.33;;;1.17;;
15573;SDS011;7888;46.748;8.102;2023-05-07T08:10:34;1.85;;;1.48;;
15573;SDS011;7888;46.748;8.102;2023-05-07T08:13:03;2.47;;;1.75;;
15573;SDS011;7888;46.748;8.102;2023-05-07T08:15:30;3.15;;;1.77;;
15573;SDS011;7888;46.748;8.102;2023-05-07T08:17:56;3.50;;;1.50;;
15573;SDS011;7888;46.748;8.102;2023-05-07T08:20:24;1.23;;;1.10;;
15573;SDS011;7888;46.748;8.102;2023-05-07T08:22:51;2.35;;;1.02;;
15573;SDS011;7888;46.748;8.102;2023-05-07T08:25:17;1.40;;;1.10;;
15573;SDS011;7888;46.748;8.102;2023-05-07T08:27:42;1.30;;;0.90;;
15573;SDS011;7888;46.748;8.102;2023-05-07T08:30:09;0.90;;;0.90;;
15573;SDS011;7888;46.748;8.102;2023-05-07T08:32:36;2.30;;;1.10;;
15573;SDS011;7888;46.748;8.102;2023-05-07T08:35:02;1.80;;;0.90;;
15573;SDS011;7888;46.748;8.102;2023-05-07T08:37:28;1.80;;;0.90;;
15573;SDS011;7888;46.748;8.102;2023-05-07T08:39:54;1.30;;;0.82;;
15573;SDS011;7888;46.748;8.102;2023-05-07T08:42:19;1.95;;;0.80;;
15573;SDS011;7888;46.748;8.102;2023-05-07T08:44:49;1.30;;;0.75;;
15573;SDS011;7888;46.748;8.102;2023-05-07T08:47:19;3.75;;;0.98;;
15573;SDS011;7888;46.748;8.102;2023-05-07T08:49:48;2.03;;;0.90;;
15573;SDS011;7888;46.748;8.102;2023-05-07T08:52:15;3.13;;;0.88;;
15573;SDS011;7888;46.748;8.102;2023-05-07T08:54:41;2.38;;;0.70;;
15573;SDS011;7888;46.748;8.102;2023-05-07T08:57:08;1.38;;;0.85;;
15573;SDS011;7888;46.748;8.102;2023-05-07T08:59:33;3.00;;;1.00;;
15573;SDS011;7888;46.748;8.102;2023-05-07T09:01:59;1.88;;;0.80;;
15573;SDS011;7888;46.748;8.102;2023-05-07T09:04:25;2.08;;;0.82;;
15573;SDS011;7888;46.748;8.102;2023-05-07T09:06:52;1.73;;;0.85;;
15573;SDS011;7888;46.748;8.102;2023-05-07T09:09:18;1.05;;;0.90;;
15573;SDS011;7888;46.748;8.102;2023-05-07T09:11:44;1.50;;;0.90;;
15573;SDS011;7888;46.748;8.102;2023-05-07T09:14:10;1.27;;;0.90;;
15573;SDS011;7888;46.748;8.102;2023-05-07T09:16:35;4.88;;;1.08;;
15573;SDS011;7888;46.748;8.102;2023-05-07T09:19:01;0.73;;;0.73;;
15573;SDS011;7888;46.748;8.102;2023-05-07T09:21:27;1.10;;;0.77;;
15573;SDS011;7888;46.748;8.102;2023-05-07T09:23:54;1.20;;;0.93;;
15573;SDS011;7888;46.748;8.102;2023-05-07T09:26:21;3.42;;;1.20;;
15573;SDS011;7888;46.748;8.102;2023-05-07T09:28:48;3.53;;;1.00;;
15573;SDS011;7888;46.748;8.102;2023-05-07T09:31:14;1.15;;;0.90;;
15573;SDS011;7888;46.748;8.102;2023-05-07T09:33:40;2.03;;;0.90;;
15573;SDS011;7888;46.748;8.102;2023-05-07T09:36:06;2.80;;;1.08;;
15573;SDS011;7888;46.748;8.102;2023-05-07T09:38:35;1.42;;;0.85;;
15573;SDS011;7888;46.748;8.102;2023-05-07T09:41:09;2.25;;;1.00;;
15573;SDS011;7888;46.748;8.102;2023-05-07T09:43:38;1.70;;;1.00;;
15573;SDS011;7888;46.748;8.102;2023-05-07T09:48:38;1.05;;;0.93;;
15573;SDS011;7888;46.748;8.102;2023-05-07T09:51:15;2.58;;;0.95;;
15573;SDS011;7888;46.748;8.102;2023-05-07T09:53:53;3.03;;;0.93;;
15573;SDS011;7888;46.748;8.102;2023-05-07T09:56:21;2.00;;;0.73;;
15573;SDS011;7888;46.748;8.102;2023-05-07T09:58:49;0.93;;;0.82;;
15573;SDS011;7888;46.748;8.102;2023-05-07T10:01:17;1.65;;;0.90;;
15573;SDS011;7888;46.748;8.102;2023-05-07T10:03:47;4.72;;;1.00;;
15573;SDS011;7888;46.748;8.102;2023-05-07T10:06:15;1.10;;;1.00;;
15573;SDS011;7888;46.748;8.102;2023-05-07T10:08:42;2.05;;;1.05;;
15573;SDS011;7888;46.748;8.102;2023-05-07T10:11:08;4.25;;;1.00;;
15573;SDS011;7888;46.748;8.102;2023-05-07T10:13:35;0.70;;;0.70;;
15573;SDS011;7888;46.748;8.102;2023-05-07T10:16:03;2.50;;;0.80;;
15573;SDS011;7888;46.748;8.102;2023-05-07T10:18:30;0.88;;;0.80;;
15573;SDS011;7888;46.748;8.102;2023-05-07T10:20:59;1.02;;;0.73;;
15573;SDS011;7888;46.748;8.102;2023-05-07T10:23:33;3.33;;;0.70;;
15573;SDS011;7888;46.748;8.102;2023-05-07T10:26:04;1.95;;;0.93;;
15573;SDS011;7888;46.748;8.102;2023-05-07T10:28:35;2.00;;;0.80;;
15573;SDS011;7888;46.748;8.102;2023-05-07T10:34:32;0.98;;;0.70;;
15573;SDS011;7888;46.748;8.102;2023-05-07T10:37:03;1.45;;;0.82;;
15573;SDS011;7888;46.748;8.102;2023-05-07T10:39:30;1.45;;;0.88;;
15573;SDS011;7888;46.748;8.102;2023-05-07T10:41:56;1.50;;;1.10;;
15573;SDS011;7888;46.748;8.102;2023-05-07T10:44:32;1.75;;;0.80;;
15573;SDS011;7888;46.748;8.102;2023-05-07T10:47:08;1.17;;;0.90;;
15573;SDS011;7888;46.748;8.102;2023-05-07T10:57:44;1.80;;;0.80;;
15573;SDS011;7888;46.748;8.102;2023-05-07T11:05:26;1.10;;;0.68;;
15573;SDS011;7888;46.748;8.102;2023-05-07T11:07:55;0.80;;;0.80;;
15573;SDS011;7888;46.748;8.102;2023-05-07T11:16:17;1.15;;;0.93;;
15573;SDS011;7888;46.748;8.102;2023-05-07T11:18:52;1.33;;;1.17;;
15573;SDS011;7888;46.748;8.102;2023-05-07T11:21:53;2.50;;;1.10;;
15573;SDS011;7888;46.748;8.102;2023-05-07T11:24:11;1.17;;;1.02;;
15573;SDS011;7888;46.748;8.102;2023-05-07T11:26:41;1.00;;;0.90;;
15573;SDS011;7888;46.748;8.102;2023-05-07T11:29:13;1.88;;;0.95;;
15573;SDS011;7888;46.748;8.102;2023-05-07T11:31:51;1.20;;;1.00;;
15573;SDS011;7888;46.748;8.102;2023-05-07T11:34:22;2.22;;;1.05;;
15573;SDS011;7888;46.748;8.102;2023-05-07T11:36:50;1.55;;;1.20;;
15573;SDS011;7888;46.748;8.102;2023-05-07T11:39:24;3.97;;;1.35;;
15573;SDS011;7888;46.748;8.102;2023-05-07T11:41:56;2.67;;;1.20;;
15573;SDS011;7888;46.748;8.102;2023-05-07T11:44:23;2.28;;;1.25;;
15573;SDS011;7888;46.748;8.102;2023-05-07T11:46:48;1.85;;;1.20;;
15573;SDS011;7888;46.748;8.102;2023-05-07T11:49:15;2.22;;;1.50;;
15573;SDS011;7888;46.748;8.102;2023-05-07T11:51:41;1.88;;;1.33;;
15573;SDS011;7888;46.748;8.102;2023-05-07T11:54:07;1.70;;;1.20;;
15573;SDS011;7888;46.748;8.102;2023-05-07T11:56:36;1.27;;;1.17;;
15573;SDS011;7888;46.748;8.102;2023-05-07T11:59:02;1.90;;;1.20;;
15573;SDS011;7888;46.748;8.102;2023-05-07T12:01:28;2.65;;;1.50;;
15573;SDS011;7888;46.748;8.102;2023-05-07T12:03:54;2.60;;;1.63;;
15573;SDS011;7888;46.748;8.102;2023-05-07T12:06:20;1.58;;;1.15;;
15573;SDS011;7888;46.748;8.102;2023-05-07T12:08:46;1.48;;;1.38;;
15573;SDS011;7888;46.748;8.102;2023-05-07T12:11:13;3.38;;;1.55;;
15573;SDS011;7888;46.748;8.102;2023-05-07T12:13:48;2.72;;;1.45;;
15573;SDS011;7888;46.748;8.102;2023-05-07T12:16:13;2.85;;;1.40;;
15573;SDS011;7888;46.748;8.102;2023-05-07T12:18:39;3.00;;;1.52;;
15573;SDS011;7888;46.748;8.102;2023-05-07T12:21:06;1.35;;;1.23;;
15573;SDS011;7888;46.748;8.102;2023-05-07T12:23:33;2.58;;;1.58;;
15573;SDS011;7888;46.748;8.102;2023-05-07T12:26:01;1.50;;;1.40;;
15573;SDS011;7888;46.748;8.102;2023-05-07T12:28:27;2.20;;;1.48;;
15573;SDS011;7888;46.748;8.102;2023-05-07T12:30:53;1.25;;;1.15;;
15573;SDS011;7888;46.748;8.102;2023-05-07T12:33:23;1.48;;;1.38;;
15573;SDS011;7888;46.748;8.102;2023-05-07T12:35:52;2.00;;;1.30;;
15573;SDS011;7888;46.748;8.102;2023-05-07T12:38:20;3.33;;;1.77;;
15573;SDS011;7888;46.748;8.102;2023-05-07T12:40:47;2.90;;;1.77;;
15573;SDS011;7888;46.748;8.102;2023-05-07T12:43:21;2.13;;;1.70;;
15573;SDS011;7888;46.748;8.102;2023-05-07T12:45:54;2.80;;;1.60;;
15573;SDS011;7888;46.748;8.102;2023-05-07T12:48:25;3.17;;;1.65;;
15573;SDS011;7888;46.748;8.102;2023-05-07T12:50:59;2.17;;;1.42;;
15573;SDS011;7888;46.748;8.102;2023-05-07T12:53:27;2.78;;;1.63;;
15573;SDS011;7888;46.748;8.102;2023-05-07T12:55:56;2.47;;;1.50;;
15573;SDS011;7888;46.748;8.102;2023-05-07T13:00:54;2.15;;;1.92;;
15573;SDS011;7888;46.748;8.102;2023-05-07T13:03:23;2.97;;;1.70;;
15573;SDS011;7888;46.748;8.102;2023-05-07T13:05:54;1.60;;;1.50;;
15573;SDS011;7888;46.748;8.102;2023-05-07T13:11:03;1.52;;;1.42;;
15573;SDS011;7888;46.748;8.102;2023-05-07T13:13:39;1.90;;;1.55;;
15573;SDS011;7888;46.748;8.102;2023-05-07T13:16:06;1.55;;;1.30;;
15573;SDS011;7888;46.748;8.102;2023-05-07T13:18:35;2.10;;;1.60;;
15573;SDS011;7888;46.748;8.102;2023-05-07T13:21:03;1.48;;;1.38;;
15573;SDS011;7888;46.748;8.102;2023-05-07T13:23:29;1.30;;;1.20;;
15573;SDS011;7888;46.748;8.102;2023-05-07T13:25:55;1.63;;;1.50;;
15573;SDS011;7888;46.748;8.102;2023-05-07T13:28:22;1.50;;;1.40;;
15573;SDS011;7888;46.748;8.102;2023-05-07T13:30:49;1.75;;;1.23;;
15573;SDS011;7888;46.748;8.102;2023-05-07T13:33:16;1.42;;;1.30;;
15573;SDS011;7888;46.748;8.102;2023-05-07T13:35:42;1.70;;;1.42;;
15573;SDS011;7888;46.748;8.102;2023-05-07T13:38:09;1.80;;;1.33;;
15573;SDS011;7888;46.748;8.102;2023-05-07T13:40:35;2.17;;;1.30;;
15573;SDS011;7888;46.748;8.102;2023-05-07T13:43:01;1.58;;;1.33;;
15573;SDS011;7888;46.748;8.102;2023-05-07T13:45:27;1.60;;;1.38;;
15573;SDS011;7888;46.748;8.102;2023-05-07T13:47:54;1.50;;;1.40;;
15573;SDS011;7888;46.748;8.102;2023-05-07T13:50:21;2.20;;;1.60;;
15573;SDS011;7888;46.748;8.102;2023-05-07T13:52:47;2.78;;;1.60;;
15573;SDS011;7888;46.748;8.102;2023-05-07T13:55:17;1.42;;;1.30;;
15573;SDS011;7888;46.748;8.102;2023-05-07T13:57:43;2.08;;;1.52;;
15573;SDS011;7888;46.748;8.102;2023-05-07T14:00:10;1.52;;;1.17;;
15573;SDS011;7888;46.748;8.102;2023-05-07T14:02:36;1.95;;;1.50;;
15573;SDS011;7888;46.748;8.102;2023-05-07T14:05:02;1.70;;;1.60;;
15573;SDS011;7888;46.748;8.102;2023-05-07T14:07:28;1.85;;;1.50;;
15573;SDS011;7888;46.748;8.102;2023-05-07T14:09:54;1.77;;;1.27;;
15573;SDS011;7888;46.748;8.102;2023-05-07T14:12:21;1.40;;;1.30;;
15573;SDS011;7888;46.748;8.102;2023-05-07T14:14:47;1.48;;;1.20;;
15573;SDS011;7888;46.748;8.102;2023-05-07T14:17:14;1.40;;;1.27;;
15573;SDS011;7888;46.748;8.102;2023-05-07T14:19:42;1.33;;;1.05;;
15573;SDS011;7888;46.748;8.102;2023-05-07T14:22:08;1.85;;;1.20;;
15573;SDS011;7888;46.748;8.102;2023-05-07T14:24:35;3.05;;;2.05;;
15573;SDS011;7888;46.748;8.102;2023-05-07T14:27:00;2.08;;;1.70;;
15573;SDS011;7888;46.748;8.102;2023-05-07T14:29:27;2.45;;;1.73;;
15573;SDS011;7888;46.748;8.102;2023-05-07T14:31:53;2.55;;;1.60;;
15573;SDS011;7888;46.748;8.102;2023-05-07T14:34:19;1.70;;;1.20;;
15573;SDS011;7888;46.748;8.102;2023-05-07T14:36:45;1.92;;;0.80;;
15573;SDS011;7888;46.748;8.102;2023-05-07T14:39:11;0.68;;;0.68;;
15573;SDS011;7888;46.748;8.102;2023-05-07T14:41:36;1.55;;;0.98;;
15573;SDS011;7888;46.748;8.102;2023-05-07T14:44:02;1.35;;;1.02;;
15573;SDS011;7888;46.748;8.102;2023-05-07T14:46:29;2.58;;;0.90;;
15573;SDS011;7888;46.748;8.102;2023-05-07T14:48:56;1.00;;;0.82;;
15573;SDS011;7888;46.748;8.102;2023-05-07T14:51:22;2.45;;;1.00;;
15573;SDS011;7888;46.748;8.102;2023-05-07T14:53:49;1.88;;;0.80;;
15573;SDS011;7888;46.748;8.102;2023-05-07T14:56:15;1.08;;;0.90;;
15573;SDS011;7888;46.748;8.102;2023-05-07T14:58:42;0.90;;;0.90;;
15573;SDS011;7888;46.748;8.102;2023-05-07T15:01:08;0.82;;;0.70;;
15573;SDS011;7888;46.748;8.102;2023-05-07T15:03:34;0.90;;;0.90;;
15573;SDS011;7888;46.748;8.102;2023-05-07T15:06:01;1.00;;;0.90;;
15573;SDS011;7888;46.748;8.102;2023-05-07T15:08:27;0.85;;;0.80;;
15573;SDS011;7888;46.748;8.102;2023-05-07T15:10:53;1.20;;;1.10;;
15573;SDS011;7888;46.748;8.102;2023-05-07T15:13:20;1.45;;;0.98;;
15573;SDS011;7888;46.748;8.102;2023-05-07T15:15:46;5.15;;;2.00;;
15573;SDS011;7888;46.748;8.102;2023-05-07T15:18:13;2.08;;;1.88;;
15573;SDS011;7888;46.748;8.102;2023-05-07T15:20:40;2.45;;;1.65;;
15573;SDS011;7888;46.748;8.102;2023-05-07T15:23:07;1.70;;;1.50;;
15573;SDS011;7888;46.748;8.102;2023-05-07T15:25:40;1.20;;;1.10;;
15573;SDS011;7888;46.748;8.102;2023-05-07T15:28:06;1.83;;;1.20;;
15573;SDS011;7888;46.748;8.102;2023-05-07T15:30:31;2.30;;;0.90;;
15573;SDS011;7888;46.748;8.102;2023-05-07T15:32:58;2.60;;;1.00;;